CheckWX is a tool to help pilots better visualize weather data.  It is not intended as a substitute for an official pre-flight weather briefing.

04:25:54 UTC

KVQQ METAR
Cecil Airport
Jacksonville, Florida, USA
Current

36 mins ago

KVQQ 140350Z 00000KT 3/4SM -DZ OVC002 18/17 A2978
Observed
Dec-14 @ 03:50 UTC
Visibility
3/4 SM
Flight Rules
LIFR
Conditions
Light Drizzle
Cloud Levels
  • Overcast at 200' AGL
Temperature
18°C / 64°F
Dewpoint
17°C / 63°F
Humidity
94%
Altimeter
29.78" Hg
Pressure
1008.42 hPa
Previous

2 hours ago

KVQQ 140250Z VRB03KT 1/4SM FG OVC002 17/17 A2979
Observed
Dec-14 @ 02:50 UTC
Wind
  • Variable at 3 KTS
Visibility
1/4 SM
Flight Rules
LIFR
Conditions
Fog
Cloud Levels
  • Overcast at 200' AGL
Temperature
17°C / 63°F
Dewpoint
17°C / 63°F
Humidity
100%
Altimeter
29.79" Hg
Pressure
1008.82 hPa
Previous

3 hours ago

KVQQ 140150Z 00000KT 1/4SM FG OVC001 17/17 A2982
Observed
Dec-14 @ 01:50 UTC
Visibility
1/4 SM
Flight Rules
LIFR
Conditions
Fog
Cloud Levels
  • Overcast at 100' AGL
Temperature
17°C / 63°F
Dewpoint
17°C / 63°F
Humidity
100%
Altimeter
29.82" Hg
Pressure
1009.82 hPa